Flugplatz Beilngries

Für EDNC sind keine METAR/TAF Berichte vorhanden.
Es werden die Flugwettermeldungen vom Flugplatz Hohenfels Army Air Field in 33 km Entfernung angezeigt.

Bericht für ETIH

vom 28.09. um 22:56 UTC

Wind 3 kt aus 330°

Sichtweite 10 km oder mehr

aufgebrochene Bewölkung in 2300 ft

Temperatur 8.9°C

Taupunkt 7.8°C

Luftfeuchtigkeit 93%

Luftdruck 1020 hPa

ETIH 282256Z AUTO 33003KT 9999 BKN023 09/08 A3011 RMK AO2 SLP198 T00890078 $
Keine Prognose (TAF) verfügbar.
Impressum